sensor_id;sensor_type;location;lat;lon;timestamp;P1;durP1;ratioP1;P2;durP2;ratioP2
58685;SDS011;44465;53.206;-6.106;2022-07-29T00:00:12;11.70;;;2.90;;
58685;SDS011;44465;53.206;-6.106;2022-07-29T00:02:38;10.02;;;2.50;;
58685;SDS011;44465;53.206;-6.106;2022-07-29T00:05:04;8.88;;;2.60;;
58685;SDS011;44465;53.206;-6.106;2022-07-29T00:07:30;11.30;;;3.05;;
58685;SDS011;44465;53.206;-6.106;2022-07-29T00:09:56;6.13;;;2.72;;
58685;SDS011;44465;53.206;-6.106;2022-07-29T00:12:22;9.80;;;2.83;;
58685;SDS011;44465;53.206;-6.106;2022-07-29T00:14:49;10.40;;;3.03;;
58685;SDS011;44465;53.206;-6.106;2022-07-29T00:17:15;6.78;;;2.63;;
58685;SDS011;44465;53.206;-6.106;2022-07-29T00:19:40;5.13;;;2.55;;
58685;SDS011;44465;53.206;-6.106;2022-07-29T00:22:06;3.88;;;2.55;;
58685;SDS011;44465;53.206;-6.106;2022-07-29T00:24:31;6.60;;;2.30;;
58685;SDS011;44465;53.206;-6.106;2022-07-29T00:26:57;7.05;;;2.08;;
58685;SDS011;44465;53.206;-6.106;2022-07-29T00:29:22;6.50;;;2.03;;
58685;SDS011;44465;53.206;-6.106;2022-07-29T00:31:48;5.13;;;2.28;;
58685;SDS011;44465;53.206;-6.106;2022-07-29T00:34:14;6.85;;;2.25;;
58685;SDS011;44465;53.206;-6.106;2022-07-29T00:36:58;6.15;;;2.13;;
58685;SDS011;44465;53.206;-6.106;2022-07-29T00:39:23;6.72;;;2.35;;
58685;SDS011;44465;53.206;-6.106;2022-07-29T00:41:49;5.88;;;2.08;;
58685;SDS011;44465;53.206;-6.106;2022-07-29T00:44:15;7.03;;;2.20;;
58685;SDS011;44465;53.206;-6.106;2022-07-29T00:46:41;5.82;;;1.92;;
58685;SDS011;44465;53.206;-6.106;2022-07-29T00:49:06;7.00;;;2.53;;
58685;SDS011;44465;53.206;-6.106;2022-07-29T00:51:34;6.05;;;2.63;;
58685;SDS011;44465;53.206;-6.106;2022-07-29T00:54:02;3.20;;;1.98;;
58685;SDS011;44465;53.206;-6.106;2022-07-29T00:56:29;3.97;;;2.10;;
58685;SDS011;44465;53.206;-6.106;2022-07-29T00:58:56;4.30;;;2.42;;
58685;SDS011;44465;53.206;-6.106;2022-07-29T01:01:28;3.65;;;1.83;;
58685;SDS011;44465;53.206;-6.106;2022-07-29T01:03:53;3.22;;;1.83;;
58685;SDS011;44465;53.206;-6.106;2022-07-29T01:06:19;4.20;;;2.25;;
58685;SDS011;44465;53.206;-6.106;2022-07-29T01:08:45;3.72;;;2.00;;
58685;SDS011;44465;53.206;-6.106;2022-07-29T01:11:13;3.13;;;1.70;;
58685;SDS011;44465;53.206;-6.106;2022-07-29T01:16:09;4.80;;;2.17;;
58685;SDS011;44465;53.206;-6.106;2022-07-29T01:18:39;3.60;;;2.03;;
58685;SDS011;44465;53.206;-6.106;2022-07-29T01:36:48;4.18;;;1.95;;
58685;SDS011;44465;53.206;-6.106;2022-07-29T01:39:30;2.58;;;1.75;;
58685;SDS011;44465;53.206;-6.106;2022-07-29T01:44:30;3.42;;;1.65;;
58685;SDS011;44465;53.206;-6.106;2022-07-29T01:47:00;2.90;;;2.00;;
58685;SDS011;44465;53.206;-6.106;2022-07-29T01:49:31;2.50;;;2.00;;
58685;SDS011;44465;53.206;-6.106;2022-07-29T01:52:03;3.15;;;1.73;;
58685;SDS011;44465;53.206;-6.106;2022-07-29T01:54:41;3.67;;;1.90;;
58685;SDS011;44465;53.206;-6.106;2022-07-29T01:57:09;3.08;;;2.05;;
58685;SDS011;44465;53.206;-6.106;2022-07-29T01:59:38;2.83;;;1.80;;
58685;SDS011;44465;53.206;-6.106;2022-07-29T02:02:06;2.17;;;1.88;;
58685;SDS011;44465;53.206;-6.106;2022-07-29T02:04:35;1.88;;;1.70;;
58685;SDS011;44465;53.206;-6.106;2022-07-29T02:07:03;3.50;;;1.70;;
58685;SDS011;44465;53.206;-6.106;2022-07-29T02:09:31;4.50;;;1.80;;
58685;SDS011;44465;53.206;-6.106;2022-07-29T02:12:00;2.33;;;1.70;;
58685;SDS011;44465;53.206;-6.106;2022-07-29T02:14:28;2.35;;;2.05;;
58685;SDS011;44465;53.206;-6.106;2022-07-29T02:16:58;3.45;;;1.95;;
58685;SDS011;44465;53.206;-6.106;2022-07-29T02:19:26;4.75;;;2.13;;
58685;SDS011;44465;53.206;-6.106;2022-07-29T02:21:54;5.38;;;1.83;;
58685;SDS011;44465;53.206;-6.106;2022-07-29T02:24:22;2.85;;;1.90;;
58685;SDS011;44465;53.206;-6.106;2022-07-29T02:26:50;2.72;;;1.80;;
58685;SDS011;44465;53.206;-6.106;2022-07-29T02:29:18;3.45;;;1.70;;
58685;SDS011;44465;53.206;-6.106;2022-07-29T02:31:46;4.40;;;1.98;;
58685;SDS011;44465;53.206;-6.106;2022-07-29T02:34:14;3.33;;;1.95;;
58685;SDS011;44465;53.206;-6.106;2022-07-29T02:36:42;3.58;;;1.92;;
58685;SDS011;44465;53.206;-6.106;2022-07-29T02:39:09;2.03;;;1.88;;
58685;SDS011;44465;53.206;-6.106;2022-07-29T02:44:06;4.80;;;1.80;;
58685;SDS011;44465;53.206;-6.106;2022-07-29T02:46:36;3.83;;;2.00;;
58685;SDS011;44465;53.206;-6.106;2022-07-29T02:49:09;4.05;;;1.90;;
58685;SDS011;44465;53.206;-6.106;2022-07-29T02:51:44;2.80;;;1.73;;
58685;SDS011;44465;53.206;-6.106;2022-07-29T02:54:18;2.88;;;1.70;;
58685;SDS011;44465;53.206;-6.106;2022-07-29T02:56:47;2.10;;;1.85;;
58685;SDS011;44465;53.206;-6.106;2022-07-29T02:59:14;2.40;;;1.73;;
58685;SDS011;44465;53.206;-6.106;2022-07-29T03:01:46;3.10;;;1.52;;
58685;SDS011;44465;53.206;-6.106;2022-07-29T03:04:13;1.90;;;1.53;;
58685;SDS011;44465;53.206;-6.106;2022-07-29T03:06:41;2.15;;;1.90;;
58685;SDS011;44465;53.206;-6.106;2022-07-29T03:09:09;2.13;;;1.80;;
58685;SDS011;44465;53.206;-6.106;2022-07-29T03:11:36;3.47;;;2.10;;
58685;SDS011;44465;53.206;-6.106;2022-07-29T03:14:03;2.67;;;1.63;;
58685;SDS011;44465;53.206;-6.106;2022-07-29T03:16:30;2.05;;;1.70;;
58685;SDS011;44465;53.206;-6.106;2022-07-29T03:18:56;2.75;;;1.67;;
58685;SDS011;44465;53.206;-6.106;2022-07-29T03:21:22;2.30;;;1.55;;
58685;SDS011;44465;53.206;-6.106;2022-07-29T03:23:48;1.70;;;1.60;;
58685;SDS011;44465;53.206;-6.106;2022-07-29T03:26:13;2.28;;;1.75;;
58685;SDS011;44465;53.206;-6.106;2022-07-29T03:28:39;2.33;;;1.70;;
58685;SDS011;44465;53.206;-6.106;2022-07-29T03:31:04;2.88;;;1.90;;
58685;SDS011;44465;53.206;-6.106;2022-07-29T03:33:30;2.38;;;1.60;;
58685;SDS011;44465;53.206;-6.106;2022-07-29T03:35:56;3.15;;;1.70;;
58685;SDS011;44465;53.206;-6.106;2022-07-29T03:38:23;3.28;;;1.80;;
58685;SDS011;44465;53.206;-6.106;2022-07-29T03:40:54;1.58;;;1.48;;
58685;SDS011;44465;53.206;-6.106;2022-07-29T03:43:26;1.83;;;1.73;;
58685;SDS011;44465;53.206;-6.106;2022-07-29T03:45:55;2.90;;;1.88;;
58685;SDS011;44465;53.206;-6.106;2022-07-29T03:48:23;4.35;;;2.40;;
58685;SDS011;44465;53.206;-6.106;2022-07-29T03:53:15;2.65;;;1.65;;
58685;SDS011;44465;53.206;-6.106;2022-07-29T03:55:43;2.05;;;1.83;;
58685;SDS011;44465;53.206;-6.106;2022-07-29T03:58:11;2.65;;;1.85;;
58685;SDS011;44465;53.206;-6.106;2022-07-29T04:00:39;1.60;;;1.50;;
58685;SDS011;44465;53.206;-6.106;2022-07-29T04:03:07;2.00;;;1.60;;
58685;SDS011;44465;53.206;-6.106;2022-07-29T04:05:33;2.23;;;1.20;;
58685;SDS011;44465;53.206;-6.106;2022-07-29T04:07:59;3.85;;;1.70;;
58685;SDS011;44465;53.206;-6.106;2022-07-29T04:10:25;1.60;;;1.50;;
58685;SDS011;44465;53.206;-6.106;2022-07-29T04:12:51;1.67;;;1.58;;
58685;SDS011;44465;53.206;-6.106;2022-07-29T04:15:17;1.77;;;1.52;;
58685;SDS011;44465;53.206;-6.106;2022-07-29T04:17:43;3.20;;;1.48;;
58685;SDS011;44465;53.206;-6.106;2022-07-29T04:20:08;1.48;;;1.23;;
58685;SDS011;44465;53.206;-6.106;2022-07-29T04:22:34;1.88;;;1.60;;
58685;SDS011;44465;53.206;-6.106;2022-07-29T04:25:00;2.22;;;1.88;;
58685;SDS011;44465;53.206;-6.106;2022-07-29T04:27:25;1.55;;;1.30;;
58685;SDS011;44465;53.206;-6.106;2022-07-29T04:29:51;2.47;;;1.63;;
58685;SDS011;44465;53.206;-6.106;2022-07-29T04:32:16;2.03;;;1.77;;
58685;SDS011;44465;53.206;-6.106;2022-07-29T04:34:42;2.55;;;1.50;;
58685;SDS011;44465;53.206;-6.106;2022-07-29T04:37:07;1.80;;;1.42;;
58685;SDS011;44465;53.206;-6.106;2022-07-29T04:39:33;2.13;;;1.25;;
58685;SDS011;44465;53.206;-6.106;2022-07-29T04:41:58;1.85;;;1.50;;
58685;SDS011;44465;53.206;-6.106;2022-07-29T04:44:24;1.50;;;1.35;;
58685;SDS011;44465;53.206;-6.106;2022-07-29T04:46:49;1.52;;;1.13;;
58685;SDS011;44465;53.206;-6.106;2022-07-29T04:49:14;1.90;;;1.13;;
58685;SDS011;44465;53.206;-6.106;2022-07-29T04:51:40;1.83;;;1.55;;
58685;SDS011;44465;53.206;-6.106;2022-07-29T04:54:05;1.73;;;1.45;;
58685;SDS011;44465;53.206;-6.106;2022-07-29T04:56:31;1.48;;;1.38;;
58685;SDS011;44465;53.206;-6.106;2022-07-29T04:58:56;2.60;;;1.73;;
58685;SDS011;44465;53.206;-6.106;2022-07-29T05:01:22;2.08;;;1.27;;
58685;SDS011;44465;53.206;-6.106;2022-07-29T05:03:47;1.60;;;1.50;;
58685;SDS011;44465;53.206;-6.106;2022-07-29T05:06:13;1.90;;;1.50;;
58685;SDS011;44465;53.206;-6.106;2022-07-29T05:08:38;1.85;;;1.35;;
58685;SDS011;44465;53.206;-6.106;2022-07-29T05:11:04;2.20;;;1.40;;
58685;SDS011;44465;53.206;-6.106;2022-07-29T05:13:29;1.38;;;1.27;;
58685;SDS011;44465;53.206;-6.106;2022-07-29T05:15:55;1.15;;;1.05;;
58685;SDS011;44465;53.206;-6.106;2022-07-29T05:18:23;1.55;;;1.10;;
58685;SDS011;44465;53.206;-6.106;2022-07-29T05:20:49;1.95;;;1.45;;
58685;SDS011;44465;53.206;-6.106;2022-07-29T05:23:14;1.75;;;1.45;;
58685;SDS011;44465;53.206;-6.106;2022-07-29T05:25:40;1.60;;;1.50;;
58685;SDS011;44465;53.206;-6.106;2022-07-29T05:28:06;1.40;;;1.13;;
58685;SDS011;44465;53.206;-6.106;2022-07-29T05:30:31;1.30;;;1.20;;
58685;SDS011;44465;53.206;-6.106;2022-07-29T05:32:57;2.05;;;1.30;;
58685;SDS011;44465;53.206;-6.106;2022-07-29T05:35:22;2.22;;;1.45;;
58685;SDS011;44465;53.206;-6.106;2022-07-29T05:37:48;1.30;;;1.20;;
58685;SDS011;44465;53.206;-6.106;2022-07-29T05:40:13;1.63;;;1.52;;
58685;SDS011;44465;53.206;-6.106;2022-07-29T05:42:39;1.95;;;1.30;;
58685;SDS011;44465;53.206;-6.106;2022-07-29T05:45:04;2.00;;;1.60;;
58685;SDS011;44465;53.206;-6.106;2022-07-29T05:47:30;1.30;;;1.20;;
58685;SDS011;44465;53.206;-6.106;2022-07-29T05:49:56;1.55;;;1.30;;
58685;SDS011;44465;53.206;-6.106;2022-07-29T05:52:22;1.45;;;1.20;;
58685;SDS011;44465;53.206;-6.106;2022-07-29T05:54:48;1.48;;;1.38;;
58685;SDS011;44465;53.206;-6.106;2022-07-29T05:57:20;1.70;;;1.25;;
58685;SDS011;44465;53.206;-6.106;2022-07-29T05:59:47;1.90;;;1.25;;
58685;SDS011;44465;53.206;-6.106;2022-07-29T06:02:13;1.23;;;0.95;;
58685;SDS011;44465;53.206;-6.106;2022-07-29T06:04:39;1.45;;;1.35;;
58685;SDS011;44465;53.206;-6.106;2022-07-29T06:07:04;1.45;;;1.30;;
58685;SDS011;44465;53.206;-6.106;2022-07-29T06:09:30;1.40;;;1.30;;
58685;SDS011;44465;53.206;-6.106;2022-07-29T06:11:56;1.30;;;1.20;;
58685;SDS011;44465;53.206;-6.106;2022-07-29T06:14:22;1.55;;;1.30;;
58685;SDS011;44465;53.206;-6.106;2022-07-29T06:16:48;1.45;;;1.25;;
58685;SDS011;44465;53.206;-6.106;2022-07-29T06:19:13;1.75;;;1.48;;
58685;SDS011;44465;53.206;-6.106;2022-07-29T06:21:43;1.52;;;1.25;;
58685;SDS011;44465;53.206;-6.106;2022-07-29T06:24:10;1.92;;;1.50;;
58685;SDS011;44465;53.206;-6.106;2022-07-29T06:26:39;1.77;;;1.45;;
58685;SDS011;44465;53.206;-6.106;2022-07-29T06:29:06;1.80;;;1.50;;
58685;SDS011;44465;53.206;-6.106;2022-07-29T06:31:32;1.33;;;1.23;;
58685;SDS011;44465;53.206;-6.106;2022-07-29T06:33:57;1.42;;;1.20;;
58685;SDS011;44465;53.206;-6.106;2022-07-29T06:36:23;2.22;;;1.42;;
58685;SDS011;44465;53.206;-6.106;2022-07-29T06:38:48;1.17;;;1.08;;
58685;SDS011;44465;53.206;-6.106;2022-07-29T06:41:13;1.35;;;1.20;;
58685;SDS011;44465;53.206;-6.106;2022-07-29T06:43:41;1.38;;;1.15;;
58685;SDS011;44465;53.206;-6.106;2022-07-29T06:46:08;1.83;;;1.50;;
58685;SDS011;44465;53.206;-6.106;2022-07-29T06:48:39;1.70;;;1.30;;
58685;SDS011;44465;53.206;-6.106;2022-07-29T06:51:05;1.37;;;1.27;;
58685;SDS011;44465;53.206;-6.106;2022-07-29T06:53:31;1.35;;;1.25;;
58685;SDS011;44465;53.206;-6.106;2022-07-29T06:55:58;1.45;;;1.35;;
58685;SDS011;44465;53.206;-6.106;2022-07-29T06:58:28;1.58;;;1.48;;
58685;SDS011;44465;53.206;-6.106;2022-07-29T07:00:54;2.20;;;1.55;;
58685;SDS011;44465;53.206;-6.106;2022-07-29T07:03:20;1.63;;;1.52;;
58685;SDS011;44465;53.206;-6.106;2022-07-29T07:05:46;1.48;;;1.38;;
58685;SDS011;44465;53.206;-6.106;2022-07-29T07:08:12;1.80;;;1.50;;
58685;SDS011;44465;53.206;-6.106;2022-07-29T07:10:38;1.30;;;1.20;;
58685;SDS011;44465;53.206;-6.106;2022-07-29T07:13:04;1.75;;;1.20;;
58685;SDS011;44465;53.206;-6.106;2022-07-29T07:15:30;2.65;;;1.40;;
58685;SDS011;44465;53.206;-6.106;2022-07-29T07:17:56;0.95;;;0.95;;
58685;SDS011;44465;53.206;-6.106;2022-07-29T07:20:22;1.50;;;1.40;;
58685;SDS011;44465;53.206;-6.106;2022-07-29T07:22:48;1.23;;;1.13;;
58685;SDS011;44465;53.206;-6.106;2022-07-29T07:25:14;1.92;;;1.20;;
58685;SDS011;44465;53.206;-6.106;2022-07-29T07:27:39;2.88;;;1.30;;
58685;SDS011;44465;53.206;-6.106;2022-07-29T07:30:05;1.58;;;1.30;;
58685;SDS011;44465;53.206;-6.106;2022-07-29T07:32:34;1.40;;;1.10;;
58685;SDS011;44465;53.206;-6.106;2022-07-29T07:35:00;1.25;;;1.15;;
58685;SDS011;44465;53.206;-6.106;2022-07-29T07:37:25;1.50;;;1.40;;
58685;SDS011;44465;53.206;-6.106;2022-07-29T07:39:51;1.33;;;1.20;;
58685;SDS011;44465;53.206;-6.106;2022-07-29T07:42:18;2.35;;;1.60;;
58685;SDS011;44465;53.206;-6.106;2022-07-29T07:44:43;1.40;;;1.30;;
58685;SDS011;44465;53.206;-6.106;2022-07-29T07:47:10;1.90;;;1.53;;
58685;SDS011;44465;53.206;-6.106;2022-07-29T07:49:36;1.20;;;1.10;;
58685;SDS011;44465;53.206;-6.106;2022-07-29T07:52:02;1.08;;;1.00;;
58685;SDS011;44465;53.206;-6.106;2022-07-29T07:54:28;1.15;;;1.05;;
58685;SDS011;44465;53.206;-6.106;2022-07-29T07:56:53;1.48;;;1.17;;
58685;SDS011;44465;53.206;-6.106;2022-07-29T07:59:19;1.73;;;1.17;;
58685;SDS011;44465;53.206;-6.106;2022-07-29T08:01:44;1.13;;;1.13;;
58685;SDS011;44465;53.206;-6.106;2022-07-29T08:04:10;1.27;;;1.17;;
58685;SDS011;44465;53.206;-6.106;2022-07-29T08:06:35;0.98;;;0.98;;
58685;SDS011;44465;53.206;-6.106;2022-07-29T08:09:02;1.30;;;1.20;;
58685;SDS011;44465;53.206;-6.106;2022-07-29T08:11:29;1.20;;;1.10;;
58685;SDS011;44465;53.206;-6.106;2022-07-29T08:13:55;2.28;;;1.40;;
58685;SDS011;44465;53.206;-6.106;2022-07-29T08:16:21;1.50;;;1.33;;
58685;SDS011;44465;53.206;-6.106;2022-07-29T08:18:46;1.55;;;1.35;;
58685;SDS011;44465;53.206;-6.106;2022-07-29T08:21:13;1.45;;;1.35;;
58685;SDS011;44465;53.206;-6.106;2022-07-29T08:23:39;2.20;;;1.30;;
58685;SDS011;44465;53.206;-6.106;2022-07-29T08:26:10;1.27;;;1.17;;
58685;SDS011;44465;53.206;-6.106;2022-07-29T08:28:40;1.30;;;1.30;;
58685;SDS011;44465;53.206;-6.106;2022-07-29T08:31:09;1.30;;;1.20;;
58685;SDS011;44465;53.206;-6.106;2022-07-29T08:33:35;2.08;;;1.20;;
58685;SDS011;44465;53.206;-6.106;2022-07-29T08:36:00;1.45;;;1.38;;
58685;SDS011;44465;53.206;-6.106;2022-07-29T08:38:26;1.98;;;1.40;;
58685;SDS011;44465;53.206;-6.106;2022-07-29T08:40:52;2.13;;;1.48;;
58685;SDS011;44465;53.206;-6.106;2022-07-29T08:43:18;1.70;;;1.23;;
58685;SDS011;44465;53.206;-6.106;2022-07-29T08:45:48;1.40;;;1.30;;
58685;SDS011;44465;53.206;-6.106;2022-07-29T08:48:18;1.48;;;1.38;;
58685;SDS011;44465;53.206;-6.106;2022-07-29T08:50:46;2.35;;;1.10;;
58685;SDS011;44465;53.206;-6.106;2022-07-29T08:53:14;1.65;;;1.35;;
58685;SDS011;44465;53.206;-6.106;2022-07-29T08:55:42;2.45;;;1.63;;
58685;SDS011;44465;53.206;-6.106;2022-07-29T08:58:09;1.52;;;1.35;;
58685;SDS011;44465;53.206;-6.106;2022-07-29T09:00:35;1.85;;;1.40;;
58685;SDS011;44465;53.206;-6.106;2022-07-29T09:05:29;1.67;;;1.30;;
58685;SDS011;44465;53.206;-6.106;2022-07-29T09:07:56;1.30;;;1.20;;
58685;SDS011;44465;53.206;-6.106;2022-07-29T09:10:22;1.30;;;1.20;;
58685;SDS011;44465;53.206;-6.106;2022-07-29T09:12:48;1.88;;;1.40;;
58685;SDS011;44465;53.206;-6.106;2022-07-29T09:15:14;2.47;;;1.42;;
58685;SDS011;44465;53.206;-6.106;2022-07-29T09:17:43;16.73;;;3.10;;
58685;SDS011;44465;53.206;-6.106;2022-07-29T09:20:17;5.57;;;1.92;;
58685;SDS011;44465;53.206;-6.106;2022-07-29T09:22:45;6.93;;;2.10;;
58685;SDS011;44465;53.206;-6.106;2022-07-29T09:25:37;14.50;;;2.47;;
58685;SDS011;44465;53.206;-6.106;2022-07-29T09:28:11;8.32;;;2.08;;
58685;SDS011;44465;53.206;-6.106;2022-07-29T09:30:53;9.65;;;2.20;;
58685;SDS011;44465;53.206;-6.106;2022-07-29T09:33:21;6.93;;;2.33;;
58685;SDS011;44465;53.206;-6.106;2022-07-29T09:35:58;6.70;;;1.65;;
58685;SDS011;44465;53.206;-6.106;2022-07-29T09:38:30;4.38;;;1.80;;
58685;SDS011;44465;53.206;-6.106;2022-07-29T09:40:57;6.90;;;1.60;;
58685;SDS011;44465;53.206;-6.106;2022-07-29T09:43:26;2.95;;;1.25;;
58685;SDS011;44465;53.206;-6.106;2022-07-29T09:45:52;4.60;;;1.42;;
58685;SDS011;44465;53.206;-6.106;2022-07-29T09:48:18;4.18;;;1.67;;
58685;SDS011;44465;53.206;-6.106;2022-07-29T09:50:49;5.00;;;1.85;;
58685;SDS011;44465;53.206;-6.106;2022-07-29T09:53:34;2.83;;;1.42;;
58685;SDS011;44465;53.206;-6.106;2022-07-29T09:56:02;6.28;;;1.35;;
58685;SDS011;44465;53.206;-6.106;2022-07-29T09:58:29;3.72;;;1.77;;
58685;SDS011;44465;53.206;-6.106;2022-07-29T10:00:55;2.60;;;1.33;;
58685;SDS011;44465;53.206;-6.106;2022-07-29T10:03:21;4.13;;;2.00;;
58685;SDS011;44465;53.206;-6.106;2022-07-29T10:06:03;3.10;;;1.50;;
58685;SDS011;44465;53.206;-6.106;2022-07-29T10:08:33;4.60;;;1.50;;
58685;SDS011;44465;53.206;-6.106;2022-07-29T10:11:08;5.45;;;2.00;;
58685;SDS011;44465;53.206;-6.106;2022-07-29T10:13:44;2.53;;;1.63;;
58685;SDS011;44465;53.206;-6.106;2022-07-29T10:16:11;3.20;;;1.55;;
58685;SDS011;44465;53.206;-6.106;2022-07-29T10:18:38;2.20;;;1.52;;
58685;SDS011;44465;53.206;-6.106;2022-07-29T10:21:04;7.28;;;1.98;;
58685;SDS011;44465;53.206;-6.106;2022-07-29T10:23:30;5.15;;;1.63;;
58685;SDS011;44465;53.206;-6.106;2022-07-29T10:25:56;6.65;;;2.33;;
58685;SDS011;44465;53.206;-6.106;2022-07-29T10:28:22;9.32;;;2.45;;
58685;SDS011;44465;53.206;-6.106;2022-07-29T10:30:52;19.45;;;4.05;;
58685;SDS011;44465;53.206;-6.106;2022-07-29T10:39:17;8.07;;;2.50;;
58685;SDS011;44465;53.206;-6.106;2022-07-29T10:41:59;8.73;;;2.25;;
58685;SDS011;44465;53.206;-6.106;2022-07-29T10:44:35;145.57;;;48.22;;
58685;SDS011;44465;53.206;-6.106;2022-07-29T10:47:05;76.03;;;24.73;;
58685;SDS011;44465;53.206;-6.106;2022-07-29T10:49:30;59.03;;;22.75;;
58685;SDS011;44465;53.206;-6.106;2022-07-29T10:51:57;52.13;;;19.08;;
58685;SDS011;44465;53.206;-6.106;2022-07-29T10:59:38;43.35;;;15.77;;
58685;SDS011;44465;53.206;-6.106;2022-07-29T11:07:24;25.00;;;7.38;;
58685;SDS011;44465;53.206;-6.106;2022-07-29T11:15:08;48.97;;;11.90;;
58685;SDS011;44465;53.206;-6.106;2022-07-29T11:23:24;13.73;;;4.28;;
58685;SDS011;44465;53.206;-6.106;2022-07-29T11:31:19;17.23;;;5.20;;
58685;SDS011;44465;53.206;-6.106;2022-07-29T11:39:40;52.55;;;9.73;;
58685;SDS011;44465;53.206;-6.106;2022-07-29T11:44:53;21.13;;;4.97;;
58685;SDS011;44465;53.206;-6.106;2022-07-29T11:47:20;18.42;;;4.25;;
58685;SDS011;44465;53.206;-6.106;2022-07-29T11:49:47;30.40;;;5.43;;
58685;SDS011;44465;53.206;-6.106;2022-07-29T11:52:13;16.42;;;4.05;;
58685;SDS011;44465;53.206;-6.106;2022-07-29T11:54:39;12.90;;;4.05;;
58685;SDS011;44465;53.206;-6.106;2022-07-29T11:57:07;8.15;;;2.92;;
58685;SDS011;44465;53.206;-6.106;2022-07-29T11:59:40;17.27;;;3.55;;
58685;SDS011;44465;53.206;-6.106;2022-07-29T12:02:09;11.95;;;3.70;;
58685;SDS011;44465;53.206;-6.106;2022-07-29T12:04:47;11.07;;;3.35;;
58685;SDS011;44465;53.206;-6.106;2022-07-29T12:07:16;8.77;;;2.78;;
58685;SDS011;44465;53.206;-6.106;2022-07-29T12:09:49;10.88;;;3.45;;
58685;SDS011;44465;53.206;-6.106;2022-07-29T12:12:16;6.68;;;2.70;;
58685;SDS011;44465;53.206;-6.106;2022-07-29T12:14:42;41.70;;;7.10;;
58685;SDS011;44465;53.206;-6.106;2022-07-29T12:17:31;40.55;;;5.72;;
58685;SDS011;44465;53.206;-6.106;2022-07-29T12:19:59;17.63;;;5.20;;
58685;SDS011;44465;53.206;-6.106;2022-07-29T12:22:32;16.40;;;4.95;;
58685;SDS011;44465;53.206;-6.106;2022-07-29T12:25:03;18.02;;;4.22;;
58685;SDS011;44465;53.206;-6.106;2022-07-29T12:27:29;13.70;;;4.30;;
58685;SDS011;44465;53.206;-6.106;2022-07-29T12:29:56;11.40;;;3.20;;
58685;SDS011;44465;53.206;-6.106;2022-07-29T12:32:23;19.92;;;4.72;;
58685;SDS011;44465;53.206;-6.106;2022-07-29T12:34:49;28.20;;;5.15;;
58685;SDS011;44465;53.206;-6.106;2022-07-29T12:37:15;21.30;;;4.93;;
58685;SDS011;44465;53.206;-6.106;2022-07-29T12:39:41;21.15;;;4.32;;
58685;SDS011;44465;53.206;-6.106;2022-07-29T12:42:11;19.48;;;4.60;;
58685;SDS011;44465;53.206;-6.106;2022-07-29T12:44:44;18.80;;;4.18;;
58685;SDS011;44465;53.206;-6.106;2022-07-29T12:47:13;8.82;;;3.28;;
58685;SDS011;44465;53.206;-6.106;2022-07-29T12:49:39;11.82;;;3.33;;
58685;SDS011;44465;53.206;-6.106;2022-07-29T12:54:50;10.38;;;3.28;;
58685;SDS011;44465;53.206;-6.106;2022-07-29T12:57:15;9.63;;;3.03;;
58685;SDS011;44465;53.206;-6.106;2022-07-29T12:59:41;8.93;;;3.83;;
58685;SDS011;44465;53.206;-6.106;2022-07-29T13:02:06;6.78;;;2.67;;
58685;SDS011;44465;53.206;-6.106;2022-07-29T13:04:32;7.93;;;2.63;;
58685;SDS011;44465;53.206;-6.106;2022-07-29T13:07:05;9.25;;;2.72;;
58685;SDS011;44465;53.206;-6.106;2022-07-29T13:09:36;6.07;;;2.40;;
58685;SDS011;44465;53.206;-6.106;2022-07-29T13:12:06;4.88;;;2.35;;
58685;SDS011;44465;53.206;-6.106;2022-07-29T13:14:42;5.50;;;2.17;;
58685;SDS011;44465;53.206;-6.106;2022-07-29T13:17:10;5.57;;;2.28;;
58685;SDS011;44465;53.206;-6.106;2022-07-29T13:22:03;6.40;;;2.53;;
58685;SDS011;44465;53.206;-6.106;2022-07-29T13:24:29;5.00;;;2.30;;
58685;SDS011;44465;53.206;-6.106;2022-07-29T13:26:55;7.28;;;3.03;;
58685;SDS011;44465;53.206;-6.106;2022-07-29T13:29:21;3.30;;;2.05;;
58685;SDS011;44465;53.206;-6.106;2022-07-29T13:31:46;4.00;;;2.13;;
58685;SDS011;44465;53.206;-6.106;2022-07-29T13:34:11;8.15;;;3.10;;
58685;SDS011;44465;53.206;-6.106;2022-07-29T13:36:37;6.03;;;2.30;;
58685;SDS011;44465;53.206;-6.106;2022-07-29T13:39:03;4.70;;;2.13;;
58685;SDS011;44465;53.206;-6.106;2022-07-29T13:41:28;2.80;;;1.70;;
58685;SDS011;44465;53.206;-6.106;2022-07-29T13:43:54;8.60;;;2.80;;
58685;SDS011;44465;53.206;-6.106;2022-07-29T13:46:20;5.40;;;2.20;;
58685;SDS011;44465;53.206;-6.106;2022-07-29T13:48:45;3.88;;;2.40;;
58685;SDS011;44465;53.206;-6.106;2022-07-29T13:51:11;5.20;;;2.15;;
58685;SDS011;44465;53.206;-6.106;2022-07-29T13:53:37;4.43;;;2.20;;
58685;SDS011;44465;53.206;-6.106;2022-07-29T13:56:02;5.05;;;2.25;;
58685;SDS011;44465;53.206;-6.106;2022-07-29T13:58:31;5.72;;;2.90;;
58685;SDS011;44465;53.206;-6.106;2022-07-29T14:00:57;5.03;;;2.00;;
58685;SDS011;44465;53.206;-6.106;2022-07-29T14:03:23;3.05;;;2.20;;
58685;SDS011;44465;53.206;-6.106;2022-07-29T14:05:49;5.05;;;2.40;;
58685;SDS011;44465;53.206;-6.106;2022-07-29T14:08:15;2.60;;;2.13;;
58685;SDS011;44465;53.206;-6.106;2022-07-29T14:10:40;5.13;;;2.03;;
58685;SDS011;44465;53.206;-6.106;2022-07-29T14:13:06;3.83;;;1.90;;
58685;SDS011;44465;53.206;-6.106;2022-07-29T14:15:31;5.13;;;1.95;;
58685;SDS011;44465;53.206;-6.106;2022-07-29T14:17:57;6.65;;;2.10;;
58685;SDS011;44465;53.206;-6.106;2022-07-29T14:20:22;5.78;;;2.10;;
58685;SDS011;44465;53.206;-6.106;2022-07-29T14:22:48;4.00;;;2.00;;
58685;SDS011;44465;53.206;-6.106;2022-07-29T14:25:13;5.28;;;2.75;;
58685;SDS011;44465;53.206;-6.106;2022-07-29T14:27:39;3.33;;;2.28;;
58685;SDS011;44465;53.206;-6.106;2022-07-29T14:30:05;4.65;;;2.10;;
58685;SDS011;44465;53.206;-6.106;2022-07-29T14:32:31;17.98;;;3.60;;
58685;SDS011;44465;53.206;-6.106;2022-07-29T14:34:56;5.65;;;2.65;;
58685;SDS011;44465;53.206;-6.106;2022-07-29T14:37:21;12.52;;;2.80;;
58685;SDS011;44465;53.206;-6.106;2022-07-29T14:39:47;41.85;;;6.18;;
58685;SDS011;44465;53.206;-6.106;2022-07-29T14:42:12;29.05;;;4.85;;
58685;SDS011;44465;53.206;-6.106;2022-07-29T14:44:38;24.38;;;3.55;;
58685;SDS011;44465;53.206;-6.106;2022-07-29T14:47:04;25.10;;;4.22;;
58685;SDS011;44465;53.206;-6.106;2022-07-29T14:49:30;20.30;;;3.25;;
58685;SDS011;44465;53.206;-6.106;2022-07-29T14:51:55;22.67;;;3.88;;
58685;SDS011;44465;53.206;-6.106;2022-07-29T14:54:21;15.27;;;3.72;;
58685;SDS011;44465;53.206;-6.106;2022-07-29T14:56:46;14.15;;;3.70;;
58685;SDS011;44465;53.206;-6.106;2022-07-29T15:01:39;14.02;;;2.60;;
58685;SDS011;44465;53.206;-6.106;2022-07-29T15:04:05;14.43;;;3.13;;
58685;SDS011;44465;53.206;-6.106;2022-07-29T15:06:30;17.98;;;3.90;;
58685;SDS011;44465;53.206;-6.106;2022-07-29T15:08:56;15.93;;;2.75;;
58685;SDS011;44465;53.206;-6.106;2022-07-29T15:11:21;16.63;;;3.45;;
58685;SDS011;44465;53.206;-6.106;2022-07-29T15:13:47;16.70;;;3.10;;
58685;SDS011;44465;53.206;-6.106;2022-07-29T15:16:12;10.35;;;2.65;;
58685;SDS011;44465;53.206;-6.106;2022-07-29T15:18:37;14.90;;;2.85;;
58685;SDS011;44465;53.206;-6.106;2022-07-29T15:21:03;10.07;;;2.55;;
58685;SDS011;44465;53.206;-6.106;2022-07-29T15:23:31;13.13;;;2.78;;
58685;SDS011;44465;53.206;-6.106;2022-07-29T15:25:57;12.65;;;3.35;;
58685;SDS011;44465;53.206;-6.106;2022-07-29T15:28:22;10.88;;;2.85;;
58685;SDS011;44465;53.206;-6.106;2022-07-29T15:30:48;10.30;;;2.67;;
58685;SDS011;44465;53.206;-6.106;2022-07-29T15:33:13;8.93;;;2.55;;
58685;SDS011;44465;53.206;-6.106;2022-07-29T15:35:39;5.72;;;2.58;;
58685;SDS011;44465;53.206;-6.106;2022-07-29T15:38:04;8.75;;;2.00;;
58685;SDS011;44465;53.206;-6.106;2022-07-29T15:40:30;9.65;;;2.10;;
58685;SDS011;44465;53.206;-6.106;2022-07-29T15:42:55;15.05;;;3.50;;
58685;SDS011;44465;53.206;-6.106;2022-07-29T15:45:21;17.15;;;3.00;;
58685;SDS011;44465;53.206;-6.106;2022-07-29T15:47:46;12.50;;;3.38;;